createdAt,value
2022-11-09T00:00:08.445Z,94493.66
2022-11-09T00:02:35.169Z,94507.03
2022-11-09T00:05:02.489Z,94494.88
2022-11-09T00:07:31.720Z,94499.03
2022-11-09T00:09:58.516Z,94491.63
2022-11-09T00:12:25.928Z,94480.47
2022-11-09T00:14:52.966Z,94477.47
2022-11-09T00:17:19.828Z,94481.75
2022-11-09T00:19:46.614Z,94476.00
2022-11-09T00:22:13.302Z,94496.00
2022-11-09T00:24:40.963Z,94490.72
2022-11-09T00:27:07.672Z,94490.09
2022-11-09T00:29:35.083Z,94490.38
2022-11-09T00:32:01.787Z,94461.94
2022-11-09T00:34:28.488Z,94442.56
2022-11-09T00:36:55.864Z,94460.44
2022-11-09T00:39:22.568Z,94466.53
2022-11-09T00:41:49.404Z,94459.69
2022-11-09T00:44:16.046Z,94478.28
2022-11-09T00:46:44.214Z,94487.56
2022-11-09T00:49:12.009Z,94481.53
2022-11-09T00:51:38.713Z,94493.34
2022-11-09T00:54:07.906Z,94467.56
2022-11-09T00:56:35.312Z,94452.34
2022-11-09T00:59:03.298Z,94456.44
2022-11-09T01:01:30.042Z,94466.69
2022-11-09T01:03:57.375Z,94451.72
2022-11-09T01:06:26.683Z,94465.63
2022-11-09T01:08:55.333Z,94478.06
2022-11-09T01:11:23.439Z,94479.94
2022-11-09T01:13:53.634Z,94469.94
2022-11-09T01:16:22.772Z,94460.19
2022-11-09T01:18:53.979Z,94448.25
2022-11-09T01:21:20.816Z,94460.38
2022-11-09T01:23:47.489Z,94473.16
2022-11-09T01:26:15.808Z,94495.47
2022-11-09T01:28:43.833Z,94483.25
2022-11-09T01:31:13.909Z,94466.94
2022-11-09T01:33:41.640Z,94474.09
2022-11-09T01:36:14.660Z,94477.66
2022-11-09T01:38:42.552Z,94496.56
2022-11-09T01:41:16.626Z,94498.25
2022-11-09T01:43:44.010Z,94507.31
2022-11-09T01:46:19.135Z,94488.03
2022-11-09T01:48:52.009Z,94489.31
2022-11-09T01:51:22.219Z,94475.66
2022-11-09T01:53:53.158Z,94477.28
2022-11-09T01:56:20.448Z,94479.47
2022-11-09T01:59:00.912Z,94465.72
2022-11-09T02:01:30.376Z,94455.75
2022-11-09T02:04:33.899Z,94466.88
2022-11-09T02:07:00.937Z,94476.31
2022-11-09T02:09:31.626Z,94482.69
2022-11-09T02:12:00.147Z,94487.41
2022-11-09T02:14:29.658Z,94495.94
2022-11-09T02:16:57.173Z,94488.97
2022-11-09T02:19:24.415Z,94445.25
2022-11-09T02:21:51.316Z,94453.31
2022-11-09T02:24:18.924Z,94472.47
2022-11-09T02:26:50.487Z,94485.91
2022-11-09T02:29:22.648Z,94493.31
2022-11-09T02:31:54.532Z,94494.25
2022-11-09T02:34:22.201Z,94457.38
2022-11-09T02:36:48.914Z,94466.88
2022-11-09T02:39:26.036Z,94467.56
2022-11-09T02:42:00.620Z,94474.53
2022-11-09T02:44:36.563Z,94483.91
2022-11-09T02:47:03.443Z,94469.81
2022-11-09T02:49:30.751Z,94489.75
2022-11-09T02:51:57.499Z,94469.84
2022-11-09T02:54:24.785Z,94478.31
2022-11-09T02:56:53.281Z,94471.41
2022-11-09T02:59:20.582Z,94464.56
2022-11-09T03:01:47.577Z,94436.09
2022-11-09T03:04:14.382Z,94439.88
2022-11-09T03:06:41.676Z,94418.94
2022-11-09T03:09:14.906Z,94400.88
2022-11-09T03:11:43.154Z,94409.69
2022-11-09T03:14:12.744Z,94422.25
2022-11-09T03:16:50.168Z,94443.69
2022-11-09T03:19:17.685Z,94470.00
2022-11-09T03:21:46.375Z,94443.81
2022-11-09T03:24:13.076Z,94435.25
2022-11-09T03:26:41.526Z,94431.56
2022-11-09T03:29:08.681Z,94431.41
2022-11-09T03:31:35.765Z,94436.88
2022-11-09T03:34:05.620Z,94433.53
2022-11-09T03:36:35.284Z,94437.66
2022-11-09T03:39:01.971Z,94445.91
2022-11-09T03:41:28.678Z,94430.34
2022-11-09T03:43:55.475Z,94450.38
2022-11-09T03:46:22.149Z,94453.50
2022-11-09T03:48:48.935Z,94463.72
2022-11-09T03:51:15.616Z,94448.34
2022-11-09T03:53:42.985Z,94409.50
2022-11-09T03:56:09.753Z,94419.72
2022-11-09T03:58:36.905Z,94436.91
2022-11-09T04:01:04.138Z,94437.31
2022-11-09T04:03:30.823Z,94446.91
2022-11-09T04:05:59.253Z,94454.72
2022-11-09T04:08:26.938Z,94453.13
2022-11-09T04:10:53.680Z,94447.16
2022-11-09T04:13:20.693Z,94438.94
2022-11-09T04:15:47.571Z,94438.84
2022-11-09T04:18:16.112Z,94432.03
2022-11-09T04:20:43.519Z,94432.34
2022-11-09T04:23:13.601Z,94443.13
2022-11-09T04:25:42.041Z,94444.69
2022-11-09T04:28:12.124Z,94442.88
2022-11-09T04:30:39.133Z,94444.09
2022-11-09T04:33:06.182Z,94446.97
2022-11-09T04:35:34.558Z,94445.22
2022-11-09T04:38:06.654Z,94453.78
2022-11-09T04:40:34.996Z,94455.59
2022-11-09T04:43:03.762Z,94423.84
2022-11-09T04:45:30.617Z,94419.59
2022-11-09T04:48:04.569Z,94432.94
2022-11-09T04:50:32.180Z,94422.13
2022-11-09T04:53:13.349Z,94426.22
2022-11-09T04:55:40.890Z,94445.97
2022-11-09T04:58:08.629Z,94431.25
2022-11-09T05:00:36.027Z,94457.81
2022-11-09T05:03:04.674Z,94444.63
2022-11-09T05:05:34.549Z,94436.88
2022-11-09T05:08:01.668Z,94443.69
2022-11-09T05:10:30.109Z,94452.69
2022-11-09T05:13:03.273Z,94460.59
2022-11-09T05:15:30.890Z,94451.06
2022-11-09T05:17:58.693Z,94449.91
2022-11-09T05:20:26.162Z,94452.53
2022-11-09T05:23:12.562Z,94452.47
2022-11-09T05:25:39.577Z,94459.72
2022-11-09T05:28:06.337Z,94451.16
2022-11-09T05:30:33.042Z,94460.97
2022-11-09T05:32:59.822Z,94468.44
2022-11-09T05:35:27.700Z,94469.09
2022-11-09T05:37:54.506Z,94465.31
2022-11-09T05:40:21.602Z,94463.22
2022-11-09T05:42:48.438Z,94433.75
2022-11-09T05:48:04.761Z,94432.66
2022-11-09T05:50:31.731Z,94445.56
2022-11-09T05:53:12.818Z,94441.47
2022-11-09T05:55:39.840Z,94441.94
2022-11-09T05:58:07.230Z,94440.22
2022-11-09T06:00:33.943Z,94447.63
2022-11-09T06:03:08.759Z,94458.28
2022-11-09T06:05:37.160Z,94455.88
2022-11-09T06:08:13.750Z,94459.75
2022-11-09T06:10:41.867Z,94466.22
2022-11-09T06:13:09.705Z,94457.69
2022-11-09T06:15:36.634Z,94471.75
2022-11-09T06:18:03.448Z,94470.84
2022-11-09T06:20:30.641Z,94470.28
2022-11-09T06:23:03.518Z,94459.09
2022-11-09T06:25:33.045Z,94471.69
2022-11-09T06:28:00.544Z,94488.16
2022-11-09T06:30:28.388Z,94496.41
2022-11-09T06:33:02.694Z,94501.94
2022-11-09T06:35:29.818Z,94499.41
2022-11-09T06:38:00.674Z,94501.75
2022-11-09T06:40:29.244Z,94491.50
2022-11-09T06:43:00.607Z,94488.88
2022-11-09T06:45:29.397Z,94474.66
2022-11-09T06:48:02.590Z,94487.56
2022-11-09T06:50:33.050Z,94500.78
2022-11-09T06:53:03.068Z,94488.41
2022-11-09T06:55:31.383Z,94484.88
2022-11-09T06:57:59.685Z,94475.31
2022-11-09T07:00:28.741Z,94497.97
2022-11-09T07:02:55.521Z,94501.22
2022-11-09T07:05:22.906Z,94507.06
2022-11-09T07:07:50.186Z,94516.44
2022-11-09T07:10:17.595Z,94524.81
2022-11-09T07:12:45.652Z,94534.97
2022-11-09T07:15:13.873Z,94523.69
2022-11-09T07:17:41.385Z,94524.28
2022-11-09T07:20:10.055Z,94551.00
2022-11-09T07:22:40.045Z,94566.88
2022-11-09T07:25:08.377Z,94555.41
2022-11-09T07:27:35.781Z,94577.53
2022-11-09T07:30:04.363Z,94586.38
2022-11-09T07:35:26.062Z,94576.88
2022-11-09T07:37:52.986Z,94575.41
2022-11-09T07:40:20.150Z,94587.59
2022-11-09T07:42:46.981Z,94606.50
2022-11-09T07:45:15.073Z,94581.97
2022-11-09T07:47:42.057Z,94596.53
2022-11-09T07:50:10.047Z,94599.44
2022-11-09T07:52:36.743Z,94604.88
2022-11-09T07:55:03.690Z,94621.56
2022-11-09T07:57:30.494Z,94585.97
2022-11-09T07:59:58.118Z,94611.34
2022-11-09T08:02:24.887Z,94610.09
2022-11-09T08:04:51.610Z,94605.03
2022-11-09T08:07:18.342Z,94612.59
2022-11-09T08:09:45.534Z,94616.63
2022-11-09T08:12:12.899Z,94582.72
2022-11-09T08:14:39.915Z,94598.16
2022-11-09T08:17:06.646Z,94570.25
2022-11-09T08:19:33.461Z,94586.56
2022-11-09T08:22:00.693Z,94591.97
2022-11-09T08:24:28.344Z,94579.34
2022-11-09T08:26:55.859Z,94617.16
2022-11-09T08:29:22.833Z,94584.94
2022-11-09T08:31:51.485Z,94590.16
2022-11-09T08:34:18.582Z,94599.06
2022-11-09T08:36:45.881Z,94613.25
2022-11-09T08:39:13.610Z,94642.81
2022-11-09T08:41:40.328Z,94631.22
2022-11-09T08:44:07.073Z,94630.47
2022-11-09T08:46:38.388Z,94656.94
2022-11-09T08:49:07.662Z,94671.47
2022-11-09T08:51:34.411Z,94707.53
2022-11-09T08:54:01.174Z,94712.16
2022-11-09T08:56:28.891Z,94753.31
2022-11-09T08:58:55.821Z,94725.88
2022-11-09T09:01:22.929Z,94721.53
2022-11-09T09:03:49.723Z,94723.66
2022-11-09T09:06:16.503Z,94760.47
2022-11-09T09:08:44.013Z,94740.22
2022-11-09T09:11:11.276Z,94733.03
2022-11-09T09:13:43.111Z,94696.91
2022-11-09T09:16:16.211Z,94746.72
2022-11-09T09:18:44.248Z,94776.13
2022-11-09T09:21:11.970Z,94738.38
2022-11-09T09:23:38.648Z,94740.94
2022-11-09T09:26:05.971Z,94701.22
2022-11-09T09:28:33.237Z,94740.19
2022-11-09T09:31:01.672Z,94783.31
2022-11-09T09:33:29.144Z,94811.31
2022-11-09T09:35:57.563Z,94795.50
2022-11-09T09:38:25.440Z,94839.91
2022-11-09T09:41:00.481Z,94802.47
2022-11-09T09:43:41.518Z,94794.56
2022-11-09T09:46:34.393Z,94817.91
2022-11-09T09:49:15.473Z,94787.63
2022-11-09T09:52:01.605Z,94788.50
2022-11-09T09:54:39.289Z,94776.34
2022-11-09T09:57:21.941Z,94812.03
2022-11-09T09:59:52.140Z,94777.16
2022-11-09T10:02:26.171Z,94801.75
2022-11-09T10:05:00.648Z,94788.44
2022-11-09T10:07:27.297Z,94792.75
2022-11-09T10:10:17.453Z,94792.53
2022-11-09T10:12:47.149Z,94764.44
2022-11-09T10:15:22.909Z,94775.25
2022-11-09T10:18:23.705Z,94771.41
2022-11-09T10:20:58.812Z,94760.16
2022-11-09T10:23:40.249Z,94760.91
2022-11-09T10:26:20.560Z,94762.72
2022-11-09T10:29:15.234Z,94760.25
2022-11-09T10:31:44.760Z,94747.03
2022-11-09T10:34:37.059Z,94721.88
2022-11-09T10:37:10.362Z,94735.56
2022-11-09T10:39:52.464Z,94706.53
2022-11-09T10:42:38.031Z,94722.63
2022-11-09T10:45:35.801Z,94744.72
2022-11-09T10:48:39.143Z,94721.38
2022-11-09T10:51:35.285Z,94727.88
2022-11-09T10:54:31.277Z,94717.44
2022-11-09T10:57:19.625Z,94730.69
2022-11-09T11:00:06.415Z,94713.84
2022-11-09T11:02:53.246Z,94714.19
2022-11-09T11:05:39.853Z,94694.56
2022-11-09T11:08:38.411Z,94700.16
2022-11-09T11:11:34.431Z,94707.97
2022-11-09T11:14:34.359Z,94706.91
2022-11-09T11:17:44.118Z,94685.84
2022-11-09T11:20:37.606Z,94687.66
2022-11-09T11:23:26.101Z,94702.47
2022-11-09T11:26:23.760Z,94697.72
2022-11-09T11:29:46.546Z,94700.41
2022-11-09T11:32:32.598Z,94693.16
2022-11-09T11:35:34.294Z,94684.59
2022-11-09T11:38:36.976Z,94691.16
2022-11-09T11:42:06.932Z,94683.75
2022-11-09T11:45:12.751Z,94663.72
2022-11-09T11:48:26.455Z,94666.38
2022-11-09T11:51:19.241Z,94686.97
2022-11-09T11:54:36.815Z,94680.50
2022-11-09T11:57:58.242Z,94680.34
2022-11-09T12:00:55.965Z,94684.38
2022-11-09T12:04:21.634Z,94669.94
2022-11-09T12:07:35.317Z,94680.75
2022-11-09T12:11:02.050Z,94683.31
2022-11-09T12:13:53.423Z,94676.06
2022-11-09T12:16:52.734Z,94662.25
2022-11-09T12:19:40.880Z,94661.81
2022-11-09T12:22:48.420Z,94647.41
2022-11-09T12:25:58.186Z,94636.97
2022-11-09T12:29:19.193Z,94637.66
2022-11-09T12:32:24.916Z,94636.94
2022-11-09T12:35:23.309Z,94639.59
2022-11-09T12:38:14.256Z,94617.22
2022-11-09T12:41:06.428Z,94585.81
2022-11-09T12:44:04.076Z,94610.06
2022-11-09T12:46:56.325Z,94628.66
2022-11-09T12:49:44.947Z,94604.75
2022-11-09T12:52:32.280Z,94598.06
2022-11-09T12:55:49.855Z,94590.88
2022-11-09T12:58:36.980Z,94599.88
2022-11-09T13:01:34.678Z,94594.63
2022-11-09T13:04:21.440Z,94623.00
2022-11-09T13:07:06.712Z,94622.88
2022-11-09T13:09:58.294Z,94611.03
2022-11-09T13:12:43.702Z,94627.66
2022-11-09T13:15:32.669Z,94623.38
2022-11-09T13:18:51.276Z,94594.66
2022-11-09T13:21:38.787Z,94590.56
2022-11-09T13:24:29.900Z,94600.28
2022-11-09T13:27:33.788Z,94589.91
2022-11-09T13:30:25.078Z,94589.66
2022-11-09T13:33:26.658Z,94587.22
2022-11-09T13:36:11.792Z,94584.09
2022-11-09T13:39:29.584Z,94586.84
2022-11-09T13:42:30.385Z,94582.72
2022-11-09T13:45:36.087Z,94607.34
2022-11-09T13:48:41.419Z,94576.53
2022-11-09T13:51:36.046Z,94587.25
2022-11-09T13:54:30.285Z,94591.25
2022-11-09T13:57:17.180Z,94577.78
2022-11-09T14:00:06.329Z,94600.44
2022-11-09T14:03:06.721Z,94595.69
2022-11-09T14:05:57.865Z,94576.09
2022-11-09T14:08:43.958Z,94564.66
2022-11-09T14:11:59.566Z,94589.00
2022-11-09T14:15:03.313Z,94587.97
2022-11-09T14:18:02.086Z,94597.28
2022-11-09T14:21:13.914Z,94593.84
2022-11-09T14:24:12.622Z,94599.75
2022-11-09T14:27:09.972Z,94598.72
2022-11-09T14:29:57.615Z,94611.00
2022-11-09T14:32:49.541Z,94593.94
2022-11-09T14:35:39.315Z,94608.47
2022-11-09T14:38:28.656Z,94575.97
2022-11-09T14:41:23.005Z,94574.16
2022-11-09T14:44:19.816Z,94566.03
2022-11-09T14:47:06.865Z,94551.44
2022-11-09T14:49:52.768Z,94564.78
2022-11-09T14:52:38.030Z,94555.94
2022-11-09T14:55:24.915Z,94555.03
2022-11-09T14:58:14.083Z,94551.41
2022-11-09T15:01:20.672Z,94555.81
2022-11-09T15:04:13.787Z,94574.38
2022-11-09T15:07:04.771Z,94550.56
2022-11-09T15:10:05.796Z,94553.25
2022-11-09T15:12:55.016Z,94560.13
2022-11-09T15:15:40.302Z,94554.56
2022-11-09T15:18:33.489Z,94559.06
2022-11-09T15:21:33.940Z,94544.88
2022-11-09T15:24:20.325Z,94571.69
2022-11-09T15:27:29.612Z,94561.88
2022-11-09T15:30:35.246Z,94550.44
2022-11-09T15:33:20.435Z,94557.94
2022-11-09T15:36:20.103Z,94547.66
2022-11-09T15:39:19.120Z,94562.78
2022-11-09T15:42:04.958Z,94556.00
2022-11-09T15:44:55.419Z,94567.50
2022-11-09T15:47:41.513Z,94570.41
2022-11-09T15:50:27.976Z,94566.97
2022-11-09T15:53:14.006Z,94562.09
2022-11-09T15:56:00.352Z,94570.00
2022-11-09T15:58:48.335Z,94577.22
2022-11-09T16:01:34.505Z,94580.63
2022-11-09T16:04:19.768Z,94563.22
2022-11-09T16:07:06.240Z,94569.81
2022-11-09T16:09:51.423Z,94560.81
2022-11-09T16:12:40.333Z,94566.78
2022-11-09T16:15:27.761Z,94575.34
2022-11-09T16:18:13.595Z,94578.78
2022-11-09T16:21:06.352Z,94597.53
2022-11-09T16:23:57.113Z,94589.34
2022-11-09T16:26:45.426Z,94578.41
2022-11-09T16:29:33.412Z,94587.13
2022-11-09T16:32:19.853Z,94586.25
2022-11-09T16:38:12.181Z,94620.22
2022-11-09T16:41:01.549Z,94613.16
2022-11-09T16:43:50.994Z,94613.16
2022-11-09T16:46:36.299Z,94621.25
2022-11-09T16:49:21.594Z,94611.59
2022-11-09T16:52:07.055Z,94617.41
2022-11-09T16:54:52.242Z,94616.84
2022-11-09T16:57:37.712Z,94641.59
2022-11-09T17:00:27.671Z,94642.69
2022-11-09T17:03:23.276Z,94619.03
2022-11-09T17:06:11.374Z,94609.44
2022-11-09T17:08:57.108Z,94629.47
2022-11-09T17:11:42.950Z,94625.50
2022-11-09T17:14:29.109Z,94634.13
2022-11-09T17:17:18.230Z,94652.06
2022-11-09T17:20:07.529Z,94669.06
2022-11-09T17:22:52.782Z,94638.22
2022-11-09T17:25:38.813Z,94625.50
2022-11-09T17:28:25.173Z,94662.34
2022-11-09T17:31:13.083Z,94693.34
2022-11-09T17:34:01.209Z,94702.63
2022-11-09T17:37:03.792Z,94689.91
2022-11-09T17:39:50.560Z,94696.41
2022-11-09T17:42:36.486Z,94665.25
2022-11-09T17:45:22.182Z,94657.75
2022-11-09T17:48:07.487Z,94642.44
2022-11-09T17:50:52.393Z,94628.38
2022-11-09T17:53:38.059Z,94682.91
2022-11-09T17:56:23.476Z,94698.44
2022-11-09T17:59:09.334Z,94707.81
2022-11-09T18:01:56.324Z,94683.69
2022-11-09T18:04:41.852Z,94698.06
2022-11-09T18:07:28.052Z,94710.50
2022-11-09T18:10:13.173Z,94725.00
2022-11-09T18:12:58.401Z,94714.00
2022-11-09T18:15:43.810Z,94671.66
2022-11-09T18:18:29.333Z,94702.84
2022-11-09T18:21:17.681Z,94693.03
2022-11-09T18:24:03.588Z,94696.63
2022-11-09T18:26:49.599Z,94738.13
2022-11-09T18:29:35.908Z,94752.66
2022-11-09T18:32:21.966Z,94756.03
2022-11-09T18:35:07.861Z,94756.50
2022-11-09T18:37:53.253Z,94762.44
2022-11-09T18:40:38.632Z,94764.69
2022-11-09T18:43:24.016Z,94762.78
2022-11-09T18:46:13.246Z,94767.84
2022-11-09T18:48:59.038Z,94766.66
2022-11-09T18:51:44.355Z,94772.97
2022-11-09T18:54:29.997Z,94763.44
2022-11-09T18:57:19.674Z,94753.44
2022-11-09T19:00:06.855Z,94772.88
2022-11-09T19:02:53.084Z,94794.00
2022-11-09T19:05:43.717Z,94783.88
2022-11-09T19:08:47.612Z,94793.25
2022-11-09T19:11:32.956Z,94794.44
2022-11-09T19:14:18.275Z,94772.34
2022-11-09T19:17:03.832Z,94797.88
2022-11-09T19:19:49.123Z,94791.69
2022-11-09T19:22:37.941Z,94786.94
2022-11-09T19:25:23.320Z,94792.34
2022-11-09T19:28:08.679Z,94798.34
2022-11-09T19:30:54.134Z,94804.19
2022-11-09T19:33:39.429Z,94814.28
2022-11-09T19:36:30.964Z,94804.06
2022-11-09T19:39:17.862Z,94793.19
2022-11-09T19:42:03.309Z,94776.56
2022-11-09T19:44:53.522Z,94768.75
2022-11-09T19:47:41.560Z,94784.16
2022-11-09T19:50:26.903Z,94770.84
2022-11-09T19:53:12.372Z,94791.03
2022-11-09T19:56:04.340Z,94776.00
2022-11-09T19:58:55.321Z,94762.31
2022-11-09T20:01:40.368Z,94758.75
2022-11-09T20:04:25.609Z,94775.91
2022-11-09T20:07:11.057Z,94781.22
2022-11-09T20:09:56.282Z,94775.56
2022-11-09T20:12:50.831Z,94775.94
2022-11-09T20:15:37.084Z,94807.19
2022-11-09T20:18:23.956Z,94798.94
2022-11-09T20:21:09.233Z,94784.81
2022-11-09T20:23:54.923Z,94774.03
2022-11-09T20:26:40.462Z,94806.00
2022-11-09T20:29:25.616Z,94780.69
2022-11-09T20:32:12.439Z,94761.09
2022-11-09T20:34:58.214Z,94798.47
2022-11-09T20:37:43.514Z,94786.91
2022-11-09T20:40:28.906Z,94811.09
2022-11-09T20:43:14.160Z,94794.47
2022-11-09T20:46:06.016Z,94800.31
2022-11-09T20:48:54.592Z,94807.44
2022-11-09T20:51:40.807Z,94784.53
2022-11-09T20:54:26.147Z,94824.34
2022-11-09T20:57:11.565Z,94807.75
2022-11-09T20:59:56.856Z,94832.88
2022-11-09T21:02:43.187Z,94808.16
2022-11-09T21:05:28.502Z,94810.91
2022-11-09T21:08:13.779Z,94781.22
2022-11-09T21:11:04.145Z,94803.09
2022-11-09T21:13:51.557Z,94789.28
2022-11-09T21:16:37.801Z,94771.09
2022-11-09T21:19:23.019Z,94812.63
2022-11-09T21:22:08.861Z,94779.78
2022-11-09T21:25:12.625Z,94822.28
2022-11-09T21:28:16.493Z,94836.06
2022-11-09T21:31:02.573Z,94827.66
2022-11-09T21:33:47.613Z,94852.06
2022-11-09T21:36:32.941Z,94864.84
2022-11-09T21:39:18.342Z,94828.38
2022-11-09T21:42:04.723Z,94837.19
2022-11-09T21:44:50.214Z,94870.72
2022-11-09T21:47:35.576Z,94883.94
2022-11-09T21:50:21.821Z,94848.25
2022-11-09T21:53:07.356Z,94857.53
2022-11-09T21:55:53.122Z,94835.06
2022-11-09T21:58:39.768Z,94845.88
2022-11-09T22:01:25.760Z,94806.47
2022-11-09T22:04:11.670Z,94809.63
2022-11-09T22:06:57.074Z,94853.28
2022-11-09T22:10:08.207Z,94855.69
2022-11-09T22:13:06.946Z,94834.63
2022-11-09T22:16:08.321Z,94833.00
2022-11-09T22:19:12.917Z,94825.75
2022-11-09T22:21:58.262Z,94819.94
2022-11-09T22:24:43.548Z,94858.81
2022-11-09T22:27:32.374Z,94891.03
2022-11-09T22:30:17.390Z,94833.03
2022-11-09T22:33:02.700Z,94849.09
2022-11-09T22:35:59.065Z,94865.06
2022-11-09T22:38:45.549Z,94889.91
2022-11-09T22:41:30.835Z,94868.94
2022-11-09T22:44:16.247Z,94893.88
2022-11-09T22:47:01.676Z,94908.38
2022-11-09T22:49:46.901Z,94904.50
2022-11-09T22:52:32.357Z,94886.41
2022-11-09T22:55:18.518Z,94885.84
2022-11-09T22:58:04.445Z,94889.38
2022-11-09T23:00:50.640Z,94899.97
2022-11-09T23:03:36.128Z,94916.13
2022-11-09T23:06:23.749Z,94918.84
2022-11-09T23:09:09.918Z,94906.09
2022-11-09T23:11:55.282Z,94909.38
2022-11-09T23:14:58.960Z,94886.59
2022-11-09T23:18:02.720Z,94954.66
2022-11-09T23:20:48.217Z,94937.31
2022-11-09T23:23:33.601Z,94944.00
2022-11-09T23:26:19.940Z,94980.16
2022-11-09T23:29:06.028Z,94961.09
2022-11-09T23:31:51.521Z,94952.81
2022-11-09T23:34:37.038Z,94958.22
2022-11-09T23:37:22.901Z,94978.16
2022-11-09T23:40:09.162Z,94967.00
2022-11-09T23:43:00.324Z,94966.31
2022-11-09T23:45:45.956Z,94960.22
2022-11-09T23:48:31.457Z,94965.91
2022-11-09T23:51:18.614Z,94967.06
2022-11-09T23:54:03.937Z,94994.13
2022-11-09T23:56:49.464Z,94963.00
2022-11-09T23:59:34.787Z,94964.75
